Time;durP1;ratioP1;P1;durP2;ratioP2;P2;SDS_P1;SDS_P2;PMS_P1;PMS_P2;Temp;Humidity;BMP_temperature;BMP_pressure;BME280_temperature;BME280_humidity;BME280_pressure;Samples;Min_cycle;Max_cycle;Signal;HPM_P1;HPM_P2
2020/12/11 00:01:30;;;;;;;55.65;25.45;;;;;;;1.75;74.26;99459.97;5051037;28;20053;-68
2020/12/11 00:03:56;;;;;;;49.22;20.10;;;;;;;1.72;74.35;99470.38;5050860;28;20069;-69
2020/12/11 00:06:23;;;;;;;54.75;23.13;;;;;;;1.70;74.36;99469.53;5050972;28;20555;-69
2020/12/11 00:08:49;;;;;;;58.05;23.00;;;;;;;1.68;74.54;99459.22;5051067;28;20055;-68
2020/12/11 00:11:16;;;;;;;51.03;23.63;;;;;;;1.71;74.48;99458.31;5052367;28;20099;-68
2020/12/11 00:13:43;;;;;;;53.50;24.92;;;;;;;1.73;74.37;99457.41;5054772;28;20105;-68
2020/12/11 00:16:09;;;;;;;62.08;26.40;;;;;;;1.78;74.33;99450.44;5054891;28;20532;-68
2020/12/11 00:18:35;;;;;;;59.28;28.05;;;;;;;1.84;74.22;99449.47;5054974;28;20049;-68
2020/12/11 00:21:02;;;;;;;56.10;26.38;;;;;;;1.86;74.30;99452.91;5054729;28;20515;-67
2020/12/11 00:23:29;;;;;;;66.70;28.70;;;;;;;1.88;74.20;99463.25;5054672;28;20365;-69
2020/12/11 00:25:58;;;;;;;64.20;28.83;;;;;;;1.89;74.20;99462.34;5054184;28;20079;-68
2020/12/11 00:28:26;;;;;;;60.15;25.35;;;;;;;1.88;74.29;99466.69;5055352;28;20072;-69
2020/12/11 00:30:52;;;;;;;43.88;20.23;;;;;;;1.82;74.54;99462.44;5055230;28;20132;-68
2020/12/11 00:33:19;;;;;;;60.90;27.30;;;;;;;1.78;74.46;99465.94;5052671;28;20080;-68
2020/12/11 00:35:45;;;;;;;48.67;21.98;;;;;;;1.78;74.79;99475.44;5054319;28;20132;-68
2020/12/11 00:38:11;;;;;;;56.03;24.60;;;;;;;1.76;74.75;99467.69;5055283;28;20080;-68
2020/12/11 00:40:37;;;;;;;50.97;23.15;;;;;;;1.77;74.94;99476.31;5055000;28;20128;-69
2020/12/11 00:43:04;;;;;;;50.90;21.00;;;;;;;1.76;74.72;99472.88;5054984;28;20098;-69
2020/12/11 00:45:31;;;;;;;60.85;23.83;;;;;;;1.81;74.78;99483.13;5055289;28;20128;-68
2020/12/11 00:47:57;;;;;;;62.25;24.80;;;;;;;1.84;74.79;99476.19;5055149;28;20084;-68
2020/12/11 00:50:23;;;;;;;51.78;22.92;;;;;;;1.82;74.71;99470.19;5055131;28;20129;-68
2020/12/11 00:52:50;;;;;;;59.50;25.25;;;;;;;1.81;75.01;99475.38;5054821;28;20133;-68
2020/12/11 00:55:16;;;;;;;66.03;26.92;;;;;;;1.87;74.89;99480.44;5055062;28;20131;-68
2020/12/11 00:57:43;;;;;;;60.67;24.00;;;;;;;1.90;74.64;99484.75;5054570;28;20136;-69
2020/12/11 01:00:12;;;;;;;63.50;26.92;;;;;;;1.86;74.98;99489.06;5055008;28;20056;-68
2020/12/11 01:02:39;;;;;;;64.55;27.13;;;;;;;1.86;75.08;99483.91;5054421;28;20552;-69
2020/12/11 01:05:05;;;;;;;56.33;21.88;;;;;;;1.88;74.88;99479.59;5054520;28;20144;-69
2020/12/11 01:07:31;;;;;;;51.90;21.58;;;;;;;1.89;74.83;99483.88;5053284;28;20471;-69
2020/12/11 01:09:57;;;;;;;58.75;27.80;;;;;;;1.87;75.19;99482.19;5055068;28;20044;-69
2020/12/11 01:12:23;;;;;;;63.75;26.70;;;;;;;1.88;75.10;99481.34;5054279;28;20133;-68
2020/12/11 01:14:50;;;;;;;64.50;25.98;;;;;;;1.87;75.24;99485.63;5054865;28;20090;-69
2020/12/11 01:17:16;;;;;;;66.40;25.75;;;;;;;1.89;75.06;99491.66;5054223;28;20132;-69
2020/12/11 01:19:43;;;;;;;60.45;25.20;;;;;;;1.91;74.95;99484.72;5054692;28;20080;-69
2020/12/11 01:22:10;;;;;;;76.60;27.67;;;;;;;1.89;75.09;99478.72;5053728;28;20076;-69
2020/12/11 01:24:36;;;;;;;67.32;25.63;;;;;;;1.89;75.04;99478.72;5053958;28;20473;-68
2020/12/11 01:27:02;;;;;;;65.32;24.83;;;;;;;1.94;75.10;99483.81;5054482;28;20132;-68
2020/12/11 01:29:28;;;;;;;50.05;19.52;;;;;;;1.95;75.10;99476.03;5054748;28;20132;-69
2020/12/11 01:31:55;;;;;;;59.47;26.85;;;;;;;1.92;75.05;99478.66;5054262;28;20131;-68
2020/12/11 01:34:21;;;;;;;69.72;27.15;;;;;;;1.92;75.27;99482.97;5054387;28;20080;-68
2020/12/11 01:36:48;;;;;;;69.30;26.08;;;;;;;1.96;75.06;99484.63;5053809;28;20136;-68
2020/12/11 01:39:15;;;;;;;55.08;20.92;;;;;;;1.99;74.95;99490.59;5054508;28;20210;-69
2020/12/11 01:41:41;;;;;;;74.63;25.02;;;;;;;1.99;75.15;99489.75;5054157;28;20128;-69
2020/12/11 01:44:07;;;;;;;55.42;19.83;;;;;;;1.98;75.25;99490.63;5054264;28;20135;-70
2020/12/11 01:46:38;;;;;;;81.00;26.27;;;;;;;1.96;75.10;99490.66;5053948;28;20080;-68
2020/12/11 01:49:04;;;;;;;61.85;26.00;;;;;;;1.97;75.22;99487.19;5053975;28;20049;-68
2020/12/11 01:51:31;;;;;;;65.25;26.23;;;;;;;2.00;75.19;99483.72;5053949;28;20076;-70
2020/12/11 01:53:59;;;;;;;76.18;27.90;;;;;;;1.95;75.33;99477.75;5053848;28;20053;-69
2020/12/11 01:56:29;;;;;;;95.93;30.55;;;;;;;1.93;75.33;99485.53;5053459;28;20511;-69
2020/12/11 01:59:01;;;;;;;77.05;27.90;;;;;;;1.92;75.55;99481.25;5053879;28;20131;-69
2020/12/11 02:01:28;;;;;;;83.13;27.40;;;;;;;1.91;75.49;99474.38;5053737;28;20076;-69
2020/12/11 02:03:55;;;;;;;78.40;28.98;;;;;;;1.89;75.52;99473.56;5053491;28;20052;-69
2020/12/11 02:06:21;;;;;;;80.30;27.83;;;;;;;1.90;75.55;99470.09;5053791;28;20133;-69
2020/12/11 02:08:47;;;;;;;74.82;26.55;;;;;;;1.95;75.44;99477.75;5053715;28;20390;-69
2020/12/11 02:11:18;;;;;;;86.10;27.52;;;;;;;1.95;75.58;99473.44;5053636;28;20092;-69
2020/12/11 02:13:45;;;;;;;64.38;23.10;;;;;;;1.95;75.31;99467.41;5053549;28;20045;-68
2020/12/11 02:16:11;;;;;;;96.20;29.38;;;;;;;1.90;75.51;99475.25;5053528;28;20083;-69
2020/12/11 02:18:38;;;;;;;106.80;31.48;;;;;;;1.93;75.57;99475.19;5053878;28;20099;-69
2020/12/11 02:21:05;;;;;;;83.28;29.17;;;;;;;1.94;75.65;99468.31;5053059;28;20084;-70
2020/12/11 02:23:32;;;;;;;80.50;28.63;;;;;;;1.96;75.59;99469.13;5053301;28;20076;-69
2020/12/11 02:25:58;;;;;;;97.72;31.63;;;;;;;1.95;75.63;99465.69;5053111;28;20133;-70
2020/12/11 02:28:30;;;;;;;107.03;31.50;;;;;;;1.95;75.88;99464.84;5053484;28;20123;-70
2020/12/11 02:30:57;;;;;;;95.70;30.27;;;;;;;2.00;75.77;99465.59;5053261;28;20073;-71
2020/12/11 02:33:23;;;;;;;85.03;29.73;;;;;;;2.04;75.50;99457.78;5053155;28;20481;-69
2020/12/11 02:35:49;;;;;;;81.68;28.45;;;;;;;2.04;75.73;99465.53;5052644;28;20136;-70
2020/12/11 02:38:15;;;;;;;88.05;28.27;;;;;;;2.03;75.60;99469.00;5053205;28;20076;-69
2020/12/11 02:40:48;;;;;;;91.35;30.55;;;;;;;2.00;75.74;99466.47;5053073;28;20077;-70
2020/12/11 02:43:15;;;;;;;97.05;32.05;;;;;;;2.00;75.94;99473.38;5053175;28;20123;-70
2020/12/11 02:45:41;;;;;;;93.47;30.15;;;;;;;2.00;75.87;99476.81;5052843;28;20496;-70
2020/12/11 02:48:07;;;;;;;76.10;25.15;;;;;;;2.00;75.95;99476.81;5052982;28;20041;-69
2020/12/11 02:50:33;;;;;;;90.85;28.08;;;;;;;1.94;75.81;99471.75;5052801;28;20087;-68
2020/12/11 02:52:59;;;;;;;95.63;31.23;;;;;;;1.92;76.12;99472.66;5052444;28;20140;-69
2020/12/11 02:55:25;;;;;;;100.78;31.48;;;;;;;1.90;76.16;99466.66;5052623;28;20473;-69
2020/12/11 02:57:52;;;;;;;96.93;31.67;;;;;;;1.90;76.23;99464.91;5052353;28;20455;-69
2020/12/11 03:00:18;;;;;;;105.90;29.75;;;;;;;1.90;76.13;99475.25;5052662;28;20069;-70
2020/12/11 03:02:44;;;;;;;87.10;28.55;;;;;;;1.93;75.99;99472.63;5052624;28;20667;-70
2020/12/11 03:05:11;;;;;;;107.32;30.63;;;;;;;1.91;76.05;99474.38;5052621;28;20153;-70
2020/12/11 03:07:37;;;;;;;90.07;30.58;;;;;;;1.92;75.98;99478.66;5052158;28;20530;-70
2020/12/11 03:10:03;;;;;;;102.40;30.10;;;;;;;1.90;76.20;99475.25;5053029;28;20041;-70
2020/12/11 03:12:30;;;;;;;120.85;34.60;;;;;;;1.88;76.12;99482.19;5052411;28;20099;-69
2020/12/11 03:14:57;;;;;;;127.63;33.80;;;;;;;1.86;76.25;99470.13;5052610;28;20052;-69
2020/12/11 03:17:23;;;;;;;117.82;32.92;;;;;;;1.87;76.23;99470.09;5052634;28;20056;-70
2020/12/11 03:19:50;;;;;;;125.18;32.88;;;;;;;1.88;76.37;99469.25;5052584;28;20481;-69
2020/12/11 03:22:16;;;;;;;116.57;32.03;;;;;;;1.88;76.42;99469.25;5052336;28;20049;-70
2020/12/11 03:24:42;;;;;;;93.88;31.35;;;;;;;1.86;76.26;99468.41;5052484;28;20437;-69
2020/12/11 03:27:08;;;;;;;111.93;30.15;;;;;;;1.87;76.49;99469.25;5052149;28;20548;-69
2020/12/11 03:29:35;;;;;;;110.70;31.73;;;;;;;1.88;76.52;99471.84;5052529;28;20128;-70
2020/12/11 03:32:02;;;;;;;100.88;32.70;;;;;;;1.88;76.61;99469.25;5052208;28;20091;-70
2020/12/11 03:34:28;;;;;;;97.68;32.78;;;;;;;1.87;76.44;99469.25;5052038;28;20084;-69
2020/12/11 03:36:54;;;;;;;89.00;32.15;;;;;;;1.87;76.37;99467.53;5052102;28;20041;-70
2020/12/11 03:39:20;;;;;;;80.85;29.02;;;;;;;1.89;76.30;99467.53;5052234;28;20427;-71
2020/12/11 03:41:49;;;;;;;86.13;31.40;;;;;;;1.86;76.55;99473.56;5051924;28;20403;-69
2020/12/11 03:44:16;;;;;;;79.35;28.10;;;;;;;1.90;76.53;99475.25;5052108;28;20095;-69
2020/12/11 03:46:42;;;;;;;95.47;31.35;;;;;;;1.91;76.72;99471.78;5053767;28;20081;-70
2020/12/11 03:49:09;;;;;;;93.32;32.50;;;;;;;1.92;76.29;99475.22;5056161;28;20128;-70
2020/12/11 03:51:35;;;;;;;83.57;28.92;;;;;;;1.93;76.29;99474.34;5055770;28;20084;-71
2020/12/11 03:54:01;;;;;;;84.78;30.17;;;;;;;1.93;76.32;99467.44;5056135;28;20128;-69
2020/12/11 03:56:27;;;;;;;80.28;28.92;;;;;;;1.91;76.48;99474.38;5056183;28;20073;-70
2020/12/11 03:58:53;;;;;;;83.63;29.67;;;;;;;1.95;76.39;99476.03;5055865;28;20462;-69
2020/12/11 04:01:20;;;;;;;84.57;29.48;;;;;;;1.94;76.42;99476.06;5055850;28;20128;-69
2020/12/11 04:03:47;;;;;;;82.65;26.73;;;;;;;1.95;76.18;99476.03;5055854;28;20136;-70
2020/12/11 04:06:15;;;;;;;71.05;26.05;;;;;;;1.93;76.37;99480.38;5055799;28;20107;-70
2020/12/11 04:08:42;;;;;;;73.72;29.33;;;;;;;1.94;76.33;99476.91;5055750;28;20128;-70
2020/12/11 04:11:10;;;;;;;72.65;26.88;;;;;;;1.95;76.11;99476.03;5055736;28;20080;-69
2020/12/11 04:13:36;;;;;;;77.88;26.38;;;;;;;1.97;76.22;99474.28;5055764;28;20076;-70
2020/12/11 04:16:03;;;;;;;75.70;28.25;;;;;;;2.00;76.09;99471.63;5055595;28;20118;-71
2020/12/11 04:18:30;;;;;;;75.40;28.02;;;;;;;2.05;76.02;99475.00;5055339;28;20076;-70
2020/12/11 04:20:56;;;;;;;75.30;25.85;;;;;;;2.05;76.00;99469.81;5055139;28;20456;-70
2020/12/11 04:23:24;;;;;;;76.80;26.00;;;;;;;2.00;76.15;99471.63;5055327;28;20468;-69
2020/12/11 04:25:51;;;;;;;68.63;23.38;;;;;;;2.03;75.57;99474.16;5055323;28;20080;-71
2020/12/11 04:28:17;;;;;;;65.20;26.85;;;;;;;2.05;75.92;99469.81;5055382;28;20084;-72
2020/12/11 04:30:43;;;;;;;72.43;25.27;;;;;;;2.07;75.75;99478.41;5055335;28;20076;-70
2020/12/11 04:33:09;;;;;;;79.03;27.90;;;;;;;2.09;75.87;99476.66;5055292;28;20081;-71
2020/12/11 04:35:36;;;;;;;65.10;27.88;;;;;;;2.08;75.73;99464.63;5054810;28;20508;-70
2020/12/11 04:38:02;;;;;;;65.80;26.40;;;;;;;2.08;75.68;99479.25;5055063;28;20068;-70
2020/12/11 04:40:30;;;;;;;83.47;25.58;;;;;;;2.08;75.71;99474.09;5055221;28;20069;-70
2020/12/11 04:42:56;;;;;;;63.75;24.85;;;;;;;2.07;75.78;99473.22;5055203;28;20088;-70
2020/12/11 04:45:23;;;;;;;68.15;26.50;;;;;;;2.07;75.71;99478.41;5055220;28;20045;-71
2020/12/11 04:47:50;;;;;;;71.25;25.55;;;;;;;2.05;75.65;99476.72;5054725;28;20475;-71
2020/12/11 04:50:19;;;;;;;65.18;25.00;;;;;;;2.04;75.51;99482.78;5054844;28;20081;-71
2020/12/11 04:52:48;;;;;;;66.10;27.95;;;;;;;2.02;75.67;99480.22;5054610;28;20139;-71
2020/12/11 04:55:16;;;;;;;70.05;28.83;;;;;;;2.03;75.64;99479.34;5054891;28;20135;-71
2020/12/11 04:57:46;;;;;;;74.50;28.92;;;;;;;2.02;75.74;99480.22;5054512;28;20111;-71
2020/12/11 05:00:13;;;;;;;73.33;29.00;;;;;;;2.04;75.55;99483.63;5054627;28;20535;-70
2020/12/11 05:02:41;;;;;;;65.07;25.48;;;;;;;2.07;75.54;99483.56;5054702;28;20080;-70
2020/12/11 05:05:08;;;;;;;64.20;24.60;;;;;;;2.07;75.40;99482.72;5054936;28;20064;-70
2020/12/11 05:07:34;;;;;;;66.65;26.58;;;;;;;2.06;75.61;99478.44;5054688;28;20072;-71
2020/12/11 05:10:00;;;;;;;59.70;26.02;;;;;;;2.04;75.50;99473.28;5054855;28;20083;-71
2020/12/11 05:12:27;;;;;;;62.88;24.60;;;;;;;2.08;75.32;99485.31;5054242;28;20493;-71
2020/12/11 05:14:58;;;;;;;63.60;23.08;;;;;;;2.12;75.33;99481.78;5054575;28;20052;-70
2020/12/11 05:17:29;;;;;;;60.75;25.70;;;;;;;2.13;75.23;99477.47;5054225;28;20084;-72
2020/12/11 05:19:56;;;;;;;56.58;23.13;;;;;;;2.17;75.25;99488.59;5054942;28;20080;-70
2020/12/11 05:22:24;;;;;;;64.00;23.45;;;;;;;2.18;75.19;99479.97;5054381;28;20087;-70
2020/12/11 05:24:52;;;;;;;54.47;22.83;;;;;;;2.18;75.10;99479.97;5054717;28;20055;-70
2020/12/11 05:27:26;;;;;;;67.53;24.58;;;;;;;2.17;75.19;99478.25;5054247;28;20065;-70
2020/12/11 05:29:52;;;;;;;59.97;24.48;;;;;;;2.21;75.04;99485.09;5054025;28;20048;-71
2020/12/11 05:32:34;;;;;;;63.63;24.80;;;;;;;2.21;75.04;99487.66;5054055;28;20041;-71
2020/12/11 05:35:00;;;;;;;58.67;25.08;;;;;;;2.20;75.09;99493.72;5053865;28;20516;-71
2020/12/11 05:37:26;;;;;;;64.80;25.50;;;;;;;2.18;75.08;99493.75;5054155;28;20099;-70
2020/12/11 05:39:52;;;;;;;58.42;24.08;;;;;;;2.20;75.02;99493.72;5054302;28;20128;-70
2020/12/11 05:42:19;;;;;;;59.15;23.60;;;;;;;2.23;74.97;99488.50;5054041;28;20076;-72
2020/12/11 05:44:45;;;;;;;62.65;23.25;;;;;;;2.26;74.84;99488.44;5053597;28;20041;-71
2020/12/11 05:47:21;;;;;;;62.42;25.83;;;;;;;2.24;74.96;99487.63;5053915;28;20080;-71
2020/12/11 05:49:48;;;;;;;82.32;32.85;;;;;;;2.25;74.90;99494.50;5054198;28;20504;-71
2020/12/11 05:52:16;;;;;;;74.88;28.75;;;;;;;2.25;74.67;99510.00;5053890;28;20090;-70
2020/12/11 05:54:44;;;;;;;63.85;25.45;;;;;;;2.27;74.89;99516.88;5053586;28;20107;-70
2020/12/11 05:57:11;;;;;;;70.05;26.77;;;;;;;2.27;74.70;99513.41;5053383;28;20057;-72
2020/12/11 05:59:38;;;;;;;68.65;28.40;;;;;;;2.24;74.91;99522.09;5053832;28;20045;-70
2020/12/11 06:02:04;;;;;;;75.00;28.67;;;;;;;2.21;74.90;99510.94;5053345;28;20098;-71
2020/12/11 06:04:32;;;;;;;67.38;27.20;;;;;;;2.21;74.77;99511.81;5053402;28;20670;-70
2020/12/11 06:06:59;;;;;;;76.03;29.52;;;;;;;2.21;74.98;99516.13;5053546;28;20118;-70
2020/12/11 06:09:35;;;;;;;75.82;27.75;;;;;;;2.20;74.83;99510.09;5053115;28;20041;-71
2020/12/11 06:12:03;;;;;;;70.28;29.70;;;;;;;2.18;74.94;99508.41;5053065;28;20052;-70
2020/12/11 06:14:58;;;;;;;84.07;28.77;;;;;;;2.18;75.23;99500.66;5053535;28;20083;-71
2020/12/11 06:17:26;;;;;;;80.18;30.70;;;;;;;2.12;75.01;99507.66;5053142;28;20508;-71
2020/12/11 06:19:55;;;;;;;94.38;32.55;;;;;;;2.06;75.09;99506.88;5013835;28;20079;-70
2020/12/11 06:22:22;;;;;;;77.20;31.67;;;;;;;2.07;75.15;99514.59;5070278;28;20516;-70
2020/12/11 06:24:48;;;;;;;75.75;30.25;;;;;;;2.09;75.21;99509.44;5070272;28;20218;-71
2020/12/11 06:27:15;;;;;;;85.25;29.92;;;;;;;2.09;75.15;99512.88;5070461;28;20080;-71
2020/12/11 06:29:41;;;;;;;81.32;27.77;;;;;;;2.10;75.27;99509.41;5069375;28;20577;-71
2020/12/11 06:32:07;;;;;;;75.20;27.73;;;;;;;2.08;75.27;99511.16;5070317;28;20109;-71
2020/12/11 06:34:34;;;;;;;77.70;27.98;;;;;;;2.05;75.20;99506.00;5070248;28;20102;-71
2020/12/11 06:37:02;;;;;;;83.28;29.67;;;;;;;2.02;75.43;99511.22;5092193;28;20075;-71
2020/12/11 06:39:49;;;;;;;76.50;28.77;;;;;;;2.00;75.48;99510.41;5093224;28;20075;-71
2020/12/11 06:42:43;;;;;;;75.03;26.60;;;;;;;1.97;75.60;99513.03;5086015;28;20079;-72
2020/12/11 06:45:24;;;;;;;86.07;31.02;;;;;;;1.96;75.44;99501.00;5085445;28;20106;-71
2020/12/11 06:47:53;;;;;;;113.07;35.90;;;;;;;2.03;75.40;99514.66;5072027;28;20052;-69
2020/12/11 06:50:22;;;;;;;112.82;40.30;;;;;;;2.01;75.45;99514.69;5074249;28;20518;-71
2020/12/11 06:52:49;;;;;;;94.72;34.13;;;;;;;2.04;75.54;99513.78;5090570;28;20568;-71
2020/12/11 06:55:15;;;;;;;97.07;33.50;;;;;;;2.07;75.58;99509.41;5090191;28;20094;-71
2020/12/11 06:57:46;;;;;;;81.35;30.38;;;;;;;2.12;75.38;99504.22;5089884;28;20040;-72
2020/12/11 07:00:33;;;;;;;71.88;29.23;;;;;;;2.20;75.29;99509.25;5089193;28;20123;-71
2020/12/11 07:03:32;;;;;;;74.32;28.00;;;;;;;2.25;75.28;99500.53;5086271;28;20090;-72
2020/12/11 07:06:12;;;;;;;65.00;26.80;;;;;;;2.24;75.18;99498.81;5086344;28;20075;-71
2020/12/11 07:08:39;;;;;;;90.32;32.97;;;;;;;2.18;75.40;99495.47;5087323;28;20089;-71
2020/12/11 07:11:10;;;;;;;97.63;36.17;;;;;;;2.18;75.56;99500.66;5089281;28;20155;-72
2020/12/11 07:13:37;;;;;;;108.32;40.10;;;;;;;2.21;75.76;99496.28;5090632;28;20091;-72
2020/12/11 07:16:04;;;;;;;105.75;37.95;;;;;;;2.20;75.42;99491.13;5090703;28;20093;-71
2020/12/11 07:18:31;;;;;;;119.50;41.20;;;;;;;2.25;75.46;99499.66;5088976;28;20533;-71
2020/12/11 07:20:58;;;;;;;117.68;40.42;;;;;;;2.25;75.42;99502.25;5086336;28;20131;-70
2020/12/11 07:23:25;;;;;;;118.35;42.95;;;;;;;2.24;75.40;99506.56;5090223;28;20126;-71
2020/12/11 07:25:54;;;;;;;96.82;36.65;;;;;;;2.24;75.47;99501.41;5090137;28;20082;-71
2020/12/11 07:28:21;;;;;;;89.90;31.50;;;;;;;2.21;75.52;99495.44;5090646;28;20051;-72
2020/12/11 07:30:49;;;;;;;95.03;31.75;;;;;;;2.17;75.59;99493.78;5089822;28;20079;-71
2020/12/11 07:33:16;;;;;;;77.63;25.88;;;;;;;2.14;75.50;99495.53;5091746;28;20044;-71
2020/12/11 07:35:47;;;;;;;75.85;27.35;;;;;;;2.09;75.77;99496.50;5092070;28;20082;-72
2020/12/11 07:38:16;;;;;;;78.28;27.58;;;;;;;2.08;75.87;99490.47;5091769;28;20078;-70
2020/12/11 07:40:42;;;;;;;76.35;25.38;;;;;;;2.09;75.94;99497.34;5091805;28;20093;-71
2020/12/11 07:43:10;;;;;;;73.00;26.83;;;;;;;2.10;75.98;99496.47;5091920;28;20044;-70
2020/12/11 07:45:38;;;;;;;69.88;23.23;;;;;;;2.11;75.99;99499.91;5091698;28;20052;-70
2020/12/11 07:48:05;;;;;;;64.45;25.40;;;;;;;2.14;75.77;99505.88;5092059;28;20055;-70
2020/12/11 07:50:32;;;;;;;84.05;26.08;;;;;;;2.16;76.00;99512.75;5091978;28;20080;-71
2020/12/11 07:52:59;;;;;;;74.78;24.98;;;;;;;2.18;75.90;99511.84;5091785;28;20044;-70
2020/12/11 07:55:30;;;;;;;66.53;25.63;;;;;;;2.25;75.78;99512.59;5091745;28;20052;-71
2020/12/11 07:57:57;;;;;;;65.13;26.63;;;;;;;2.30;75.59;99510.81;5091683;28;20407;-70
2020/12/11 08:00:25;;;;;;;86.50;28.73;;;;;;;2.31;75.76;99515.09;5092098;28;20047;-70
2020/12/11 08:02:55;;;;;;;165.13;54.80;;;;;;;2.31;75.78;99513.38;5091587;28;20044;-70
2020/12/11 08:05:23;;;;;;;83.07;30.77;;;;;;;2.34;75.69;99509.88;5092028;28;20048;-70
2020/12/11 08:07:51;;;;;;;71.22;27.92;;;;;;;2.29;76.30;99514.25;5091651;28;20353;-70
2020/12/11 08:10:19;;;;;;;81.03;27.13;;;;;;;2.28;75.95;99517.72;5091996;28;20456;-70
2020/12/11 08:12:46;;;;;;;66.68;25.73;;;;;;;2.27;76.13;99519.44;5091282;28;20048;-70
2020/12/11 08:15:27;;;;;;;78.25;27.23;;;;;;;2.23;76.13;99522.13;5091503;28;20083;-71
2020/12/11 08:18:07;;;;;;;53.08;20.33;;;;;;;2.25;76.13;99513.44;5091724;28;20309;-70
2020/12/11 08:20:43;;;;;;;64.38;26.58;;;;;;;2.25;76.33;99517.78;5091783;28;20044;-69
2020/12/11 08:23:17;;;;;;;73.93;29.40;;;;;;;2.25;76.25;99513.44;5091685;28;20072;-69
2020/12/11 08:25:43;;;;;;;97.30;37.80;;;;;;;2.30;76.30;99516.00;5091460;28;20049;-70
2020/12/11 08:28:09;;;;;;;96.65;34.88;;;;;;;2.32;76.09;99519.41;5091522;28;20094;-70
2020/12/11 08:30:35;;;;;;;65.25;25.90;;;;;;;2.35;76.19;99519.34;5091744;28;20075;-70
2020/12/11 08:33:10;;;;;;;69.43;26.98;;;;;;;2.39;75.87;99526.16;5093719;28;20132;-69
2020/12/11 08:35:37;;;;;;;67.00;27.17;;;;;;;2.41;76.01;99516.66;5095348;28;20063;-69
2020/12/11 08:38:05;;;;;;;74.85;23.70;;;;;;;2.39;75.88;99516.66;5095227;28;20407;-70
2020/12/11 08:40:32;;;;;;;62.25;23.80;;;;;;;2.38;75.98;99519.28;5095156;28;20080;-70
2020/12/11 08:43:07;;;;;;;56.05;24.35;;;;;;;2.35;75.97;99519.34;5094790;28;20057;-70
2020/12/11 08:45:36;;;;;;;68.35;25.85;;;;;;;2.36;76.24;99515.88;5095249;28;20044;-70
2020/12/11 08:48:14;;;;;;;67.00;28.90;;;;;;;2.40;76.22;99520.09;5093928;28;20083;-69
2020/12/11 08:50:44;;;;;;;65.38;24.60;;;;;;;2.39;76.14;99518.41;5093808;28;20056;-70
2020/12/11 08:53:12;;;;;;;62.70;24.48;;;;;;;2.38;76.06;99506.34;5094289;28;20055;-69
2020/12/11 08:55:39;;;;;;;74.18;31.02;;;;;;;2.39;76.04;99513.22;5093513;28;20083;-68
2020/12/11 08:58:05;;;;;;;60.33;26.65;;;;;;;2.43;76.04;99513.16;5093704;28;20054;-69
2020/12/11 09:00:31;;;;;;;51.80;21.42;;;;;;;2.44;76.05;99508.81;5093413;28;20101;-69
2020/12/11 09:02:57;;;;;;;65.78;24.85;;;;;;;2.47;76.05;99498.41;5094308;28;20094;-70
2020/12/11 09:05:25;;;;;;;61.75;27.05;;;;;;;2.52;76.00;99500.94;5094247;28;20076;-69
2020/12/11 09:07:52;;;;;;;52.70;22.13;;;;;;;2.53;75.87;99492.31;5094145;28;20056;-70
2020/12/11 09:10:19;;;;;;;68.05;28.50;;;;;;;2.53;75.85;99482.81;5094262;28;20236;-70
2020/12/11 09:12:47;;;;;;;63.78;27.17;;;;;;;2.62;75.80;99481.78;5086287;28;20133;-69
2020/12/11 09:15:14;;;;;;;53.28;20.27;;;;;;;2.69;75.39;99476.44;5078092;28;20070;-70
2020/12/11 09:17:40;;;;;;;56.80;20.67;;;;;;;2.71;75.35;99482.47;5078200;28;20079;-70
2020/12/11 09:20:06;;;;;;;68.40;25.83;;;;;;;2.70;75.73;99491.09;5093319;28;20088;-70
2020/12/11 09:22:33;;;;;;;54.95;23.85;;;;;;;2.71;75.57;99490.25;5089639;28;20080;-70
2020/12/11 09:25:00;;;;;;;67.97;25.90;;;;;;;2.72;75.71;99468.66;5077926;28;20071;-70
2020/12/11 09:27:26;;;;;;;69.95;28.13;;;;;;;2.73;75.73;99472.09;5081007;28;20088;-71
2020/12/11 09:29:55;;;;;;;66.25;26.58;;;;;;;2.77;75.68;99475.47;5091917;28;20119;-70
2020/12/11 09:32:30;;;;;;;66.85;27.30;;;;;;;2.83;75.48;99470.16;5091592;28;20089;-70
2020/12/11 09:34:56;;;;;;;66.00;30.25;;;;;;;2.86;75.31;99475.28;5089877;28;20411;-70
2020/12/11 09:37:23;;;;;;;67.00;27.67;;;;;;;2.83;75.34;99465.84;5091920;28;20040;-70
2020/12/11 09:39:49;;;;;;;78.88;33.60;;;;;;;2.80;75.43;99465.91;5092683;28;20490;-70
2020/12/11 09:42:34;;;;;;;64.45;27.02;;;;;;;2.78;75.52;99466.81;5089595;28;20052;-70
2020/12/11 09:45:15;;;;;;;62.97;27.05;;;;;;;2.80;75.53;99465.91;5090311;28;20499;-69
2020/12/11 09:47:59;;;;;;;;;;;;;;;2.88;75.03;99457.97;5093611;28;20069;-70
2020/12/11 09:50:32;;;;;;;62.97;24.95;;;;;;;2.77;75.35;99459.94;5092558;28;19927;-68
2020/12/11 09:53:07;;;;;;;65.10;30.60;;;;;;;2.80;75.74;99452.13;5092991;28;20055;-69
2020/12/11 09:55:39;;;;;;;71.07;31.77;;;;;;;2.91;75.26;99452.72;5092147;28;20396;-69
2020/12/11 09:58:06;;;;;;;62.60;27.83;;;;;;;3.01;75.13;99451.69;5085711;28;20051;-68
2020/12/11 10:00:32;;;;;;;60.92;27.30;;;;;;;3.04;74.71;99443.84;5089072;28;20131;-69
2020/12/11 10:03:01;;;;;;;57.70;25.60;;;;;;;3.07;75.02;99446.38;5091868;28;20036;-69
2020/12/11 10:05:28;;;;;;;53.05;24.98;;;;;;;3.08;75.09;99450.66;5088842;28;20072;-68
2020/12/11 10:07:55;;;;;;;55.58;26.10;;;;;;;3.06;74.98;99444.66;5086667;28;20044;-68
2020/12/11 10:10:21;;;;;;;59.65;27.80;;;;;;;3.01;74.98;99443.91;5083798;28;20044;-69
2020/12/11 10:12:47;;;;;;;50.17;25.70;;;;;;;3.04;75.05;99443.84;5084841;28;20088;-69
2020/12/11 10:15:19;;;;;;;54.63;26.65;;;;;;;3.09;74.92;99441.16;5071800;28;20102;-69
2020/12/11 10:17:46;;;;;;;55.25;26.30;;;;;;;3.09;75.10;99438.56;5084250;28;20189;-68
2020/12/11 10:20:18;;;;;;;49.78;20.55;;;;;;;3.16;74.95;99437.56;5082861;28;20040;-69
2020/12/11 10:22:44;;;;;;;57.72;23.60;;;;;;;3.17;75.00;99441.88;5085747;28;20059;-69
2020/12/11 10:25:10;;;;;;;56.10;26.10;;;;;;;3.15;75.01;99441.91;5091568;28;20153;-66
2020/12/11 10:27:37;;;;;;;48.13;21.92;;;;;;;3.20;74.84;99437.47;5091300;28;20048;-67
2020/12/11 10:30:03;;;;;;;54.13;21.70;;;;;;;3.20;74.76;99434.88;5092372;28;20082;-69
2020/12/11 10:32:30;;;;;;;52.85;23.20;;;;;;;3.16;74.63;99438.44;5091265;28;20093;-69
2020/12/11 10:34:56;;;;;;;55.33;24.35;;;;;;;3.12;74.92;99428.13;5091692;28;20088;-69
2020/12/11 10:37:23;;;;;;;60.28;25.60;;;;;;;3.10;74.99;99432.50;5091342;28;20570;-69
2020/12/11 10:39:50;;;;;;;61.50;23.63;;;;;;;3.14;74.73;99431.56;5092581;28;20483;-69
2020/12/11 10:42:16;;;;;;;57.22;25.27;;;;;;;3.12;74.90;99429.00;5091670;28;20080;-70
2020/12/11 10:44:42;;;;;;;61.53;22.30;;;;;;;3.10;74.83;99428.19;5085249;28;20124;-70
2020/12/11 10:47:08;;;;;;;54.17;22.17;;;;;;;3.02;74.79;99427.50;5091193;28;20048;-69
2020/12/11 10:49:36;;;;;;;60.35;25.80;;;;;;;3.07;75.03;99430.84;5083429;28;20471;-68
2020/12/11 10:52:02;;;;;;;53.58;24.88;;;;;;;3.14;74.74;99432.44;5071126;28;20106;-68
2020/12/11 10:54:28;;;;;;;65.35;24.48;;;;;;;3.18;74.79;99423.69;5071345;28;20040;-67
2020/12/11 10:56:55;;;;;;;56.55;24.50;;;;;;;3.25;74.58;99434.78;5071029;28;20717;-67
2020/12/11 10:59:22;;;;;;;61.95;25.52;;;;;;;3.25;74.68;99438.22;5089046;28;20135;-68
2020/12/11 11:01:48;;;;;;;55.13;24.15;;;;;;;3.24;74.54;99423.56;5091411;28;20056;-68
2020/12/11 11:04:15;;;;;;;49.95;21.95;;;;;;;3.26;74.73;99418.34;5090983;28;20062;-67
2020/12/11 11:06:46;;;;;;;41.40;17.90;;;;;;;3.20;74.58;99408.13;5090672;28;20072;-67
2020/12/11 11:09:24;;;;;;;50.50;21.15;;;;;;;3.08;74.85;99409.22;5073264;28;20075;-68
2020/12/11 11:11:56;;;;;;;60.55;26.38;;;;;;;3.02;74.93;99406.78;5070723;28;20056;-66
2020/12/11 11:14:41;;;;;;;59.38;24.25;;;;;;;2.98;74.87;99407.72;5091384;28;20044;-67
2020/12/11 11:20:05;;;;;;;37.83;18.00;;;;;;;2.96;74.96;99404.34;5033206;28;20536;-67
2020/12/11 11:22:42;;;;;;;43.80;17.38;;;;;;;2.95;74.87;99407.81;5090362;28;20484;-67
2020/12/11 11:28:01;;;;;;;55.28;23.65;;;;;;;2.89;75.11;99403.59;5090258;28;20040;-66
2020/12/11 11:30:28;;;;;;;54.67;24.38;;;;;;;2.85;75.26;99406.28;5090339;28;20064;-66
2020/12/11 11:32:54;;;;;;;55.60;21.85;;;;;;;2.84;75.27;99414.91;5065744;28;20040;-67
2020/12/11 11:35:21;;;;;;;55.85;22.27;;;;;;;2.85;75.41;99416.63;5091140;28;20135;-67